KPGA/PGA METAR and TAF weather

Enter ICAO airport designator
Station Type Date Time Source
KPGA METAR 2019/10/23 20:53 UTC NOAA

KPGA 232053Z AUTO 15003KT 10SM CLR 22/M10 A3006 RMK AO2 SLP137 6//// T02221100 58025 TSNO


Station Type Date Time Source
KPGA Decoded METAR 2019/10/23 20:53 UTC NOAA

PAGE MUNICIPAL AIRPORT, AZ, United States (KPGA) 36-56N 111-27W 1307M
Oct 23, 2019 - 04:53 PM EDT / 2019.10.23 2053 UTC
Wind: from the SSE (150 degrees) at 3 MPH (3 KT):0
Visibility: 10 mile(s):0
Sky conditions: clear
Temperature: 72.0 F (22.2 C)
Dew Point: 14.0 F (-10.0 C)
Relative Humidity: 10%
Pressure (altimeter): 30.06 in. Hg (1017 hPa)
Pressure tendency: 0.07 inches (2.5 hPa) lower than three hours ago
ob: KPGA 232053Z AUTO 15003KT 10SM CLR 22/M10 A3006 RMK AO2 SLP137 6//// T02221100 58025 TSNO
cycle: 21

Station Type Date Time Source
KPGA TAF 2019/10/23 18:21 UTC NOAA

TAF KPGA 231720Z 2318/2418 VRB05KT P6SM SCT250
FM240300 31010KT P6SM SKC

Example: see airport list